Time;durP1;ratioP1;P1;durP2;ratioP2;P2;SDS_P1;SDS_P2;PMS_P1;PMS_P2;Temp;Humidity;BMP_temperature;BMP_pressure;BME280_temperature;BME280_humidity;BME280_pressure;Samples;Min_cycle;Max_cycle;Signal;HPM_P1;HPM_P2
2022/03/24 00:00:19;;;;;;;34.22;18.50;;;5.10;99.90;;;;;;6217616;23;20470;-82
2022/03/24 00:03:17;;;;;;;32.85;17.58;;;5.10;99.90;;;;;;6218421;23;20012;-86
2022/03/24 00:05:57;;;;;;;35.15;17.73;;;5.00;99.90;;;;;;6218959;23;20027;-84
2022/03/24 00:09:18;;;;;;;;;;;;;;;;;;;;;
2022/03/24 00:12:16;;;;;;;;;;;;;;;;;;;;;
2022/03/24 00:15:28;;;;;;;33.13;17.92;;;5.00;99.90;;;;;;6244085;23;20024;-84
2022/03/24 00:18:11;;;;;;;34.80;17.52;;;4.90;99.90;;;;;;6242740;23;20042;-86
2022/03/24 00:21:32;;;;;;;33.05;16.80;;;4.90;99.90;;;;;;6240024;23;20020;-84
2022/03/24 00:24:37;;;;;;;31.83;16.45;;;4.80;99.90;;;;;;6244367;23;20020;-85
2022/03/24 00:27:45;;;;;;;;;;;;;;;;;;;;;
2022/03/24 00:30:36;;;;;;;30.52;15.45;;;4.80;99.90;;;;;;6241721;23;20521;-83
2022/03/24 00:33:41;;;;;;;;;;;;;;;;;;;;;
2022/03/24 00:36:20;;;;;;;29.27;14.90;;;4.70;99.90;;;;;;6241241;23;20020;-84
2022/03/24 00:39:23;;;;;;;28.50;14.13;;;4.70;99.90;;;;;;6243837;22;20024;-85
2022/03/24 00:42:14;;;;;;;28.10;15.63;;;4.70;99.90;;;;;;6244471;22;20086;-86
2022/03/24 00:44:59;;;;;;;33.15;16.88;;;4.70;99.90;;;;;;6246442;22;20094;-85
2022/03/24 00:48:03;;;;;;;33.67;16.52;;;4.70;99.90;;;;;;6245993;22;20027;-85
2022/03/24 00:50:47;;;;;;;37.28;17.95;;;5.40;99.90;;;;;;6244711;23;20070;-85
2022/03/24 00:53:54;;;;;;;39.92;19.60;;;4.70;99.90;;;;;;6245178;22;20028;-85
2022/03/24 00:57:08;;;;;;;;;;;;;;;;;;;;;
2022/03/24 01:00:07;;;;;;;41.30;19.50;;;4.60;99.90;;;;;;6241104;22;20021;-85
2022/03/24 01:03:10;;;;;;;36.72;18.30;;;4.80;99.90;;;;;;6215978;23;20025;-86
2022/03/24 01:06:02;;;;;;;39.65;19.30;;;4.60;99.90;;;;;;6246629;23;20079;-86
2022/03/24 01:09:12;;;;;;;;;;;;;;;;;;;;;
2022/03/24 01:12:43;;;;;;;38.08;18.65;;;4.50;99.90;;;;;;6251142;23;20047;-86
2022/03/24 01:23:26;;;;;;;;;;;;;;;;;;;;;
2022/03/24 01:26:40;;;;;;;40.65;19.20;;;4.70;99.90;;;;;;6128452;23;20012;-86
2022/03/24 01:30:09;;;;;;;;;;;;;;;;;;;;;
2022/03/24 01:33:48;;;;;;;;;;;;;;;;;;;;;
2022/03/24 01:37:15;;;;;;;;;;;;;;;;;;;;;
2022/03/24 01:44:08;;;;;;;;;;;;;;;;;;;;;
2022/03/24 01:47:40;;;;;;;;;;;;;;;;;;;;;
2022/03/24 01:50:18;;;;;;;28.60;14.05;;;4.00;99.90;;;;;;6167624;23;20075;-86
2022/03/24 01:53:33;;;;;;;;;;;;;;;;;;;;;
2022/03/24 01:56:44;;;;;;;;;;;;;;;;;;;;;
2022/03/24 02:00:18;;;;;;;;;;;;;;;;;;;;;
2022/03/24 02:08:16;;;;;;;;;;;;;;;;;;;;;
2022/03/24 02:11:38;;;;;;;;;;;;;;;;;;;;;
2022/03/24 02:15:01;;;;;;;34.88;16.77;;;4.10;99.90;;;;;;6217097;23;20020;-85
2022/03/24 02:18:14;;;;;;;;;;;;;;;;;;;;;
2022/03/24 02:21:16;;;;;;;41.15;19.27;;;4.10;99.90;;;;;;6242198;23;20395;-84
2022/03/24 02:24:26;;;;;;;;;;;;;;;;;;;;;
2022/03/24 02:31:06;;;;;;;38.78;19.02;;;4.10;99.90;;;;;;6152823;23;20021;-85
2022/03/24 02:37:56;;;;;;;36.13;18.40;;;4.00;99.90;;;;;;6152536;23;20025;-85
2022/03/24 02:41:20;;;;;;;;;;;;;;;;;;;;;
2022/03/24 02:44:40;;;;;;;37.33;18.02;;;3.90;99.90;;;;;;6152320;23;20057;-84
2022/03/24 02:47:28;;;;;;;34.95;18.15;;;3.90;99.90;;;;;;6152621;23;20025;-85
2022/03/24 02:50:38;;;;;;;;;;;;;;;;;;;;;
2022/03/24 02:54:00;;;;;;;41.05;18.77;;;3.90;99.90;;;;;;6152318;23;20026;-84
2022/03/24 02:57:24;;;;;;;;;;;;;;;;;;;;;
2022/03/24 03:00:37;;;;;;;37.93;17.97;;;3.90;99.90;;;;;;6150556;23;20033;-84
2022/03/24 03:04:03;;;;;;;36.85;18.30;;;3.90;99.90;;;;;;6125746;23;20285;-85
2022/03/24 03:07:17;;;;;;;;;;;;;;;;;;;;;
2022/03/24 03:10:28;;;;;;;38.25;18.35;;;3.90;99.90;;;;;;6244872;22;20413;-85
2022/03/24 03:17:11;;;;;;;41.67;20.85;;;3.90;99.90;;;;;;6245203;23;19911;-86
2022/03/24 03:20:07;;;;;;;46.22;20.35;;;3.80;99.90;;;;;;6244659;22;20458;-83
2022/03/24 03:23:16;;;;;;;;;;;;;;;;;;;;;
2022/03/24 03:26:50;;;;;;;;;;;;;;;;;;;;;
2022/03/24 03:30:24;;;;;;;;;;;;;;;;;;;;;
2022/03/24 03:33:27;;;;;;;39.30;18.17;;;3.90;99.90;;;;;;6237936;22;20018;-85
2022/03/24 03:36:47;;;;;;;30.10;14.98;;;3.80;99.90;;;;;;6244896;22;20019;-85
2022/03/24 03:44:09;;;;;;;;;;;;;;;;;;;;;
2022/03/24 03:47:33;;;;;;;;;;;;;;;;;;;;;
2022/03/24 03:50:16;;;;;;;19.58;9.18;;;3.40;99.90;;;;;;6192054;23;20526;-85
2022/03/24 03:52:58;;;;;;;15.65;8.13;;;3.40;99.90;;;;;;6243201;23;20028;-86
2022/03/24 03:56:07;;;;;;;14.75;7.93;;;3.30;99.90;;;;;;6245100;22;20024;-86
2022/03/24 03:59:23;;;;;;;;;;;;;;;;;;;;;
2022/03/24 04:03:04;;;;;;;;;;;;;;;;;;;;;
2022/03/24 04:06:24;;;;;;;28.13;13.65;;;3.10;99.90;;;;;;6244554;22;20024;-85
2022/03/24 04:09:35;;;;;;;25.27;13.20;;;3.00;99.90;;;;;;6244684;22;20012;-85
2022/03/24 04:12:48;;;;;;;27.27;12.63;;;3.00;99.90;;;;;;6244542;23;20020;-84
2022/03/24 04:19:28;;;;;;;28.33;13.35;;;3.00;99.90;;;;;;6246174;23;20106;-85
2022/03/24 04:22:28;;;;;;;30.90;14.52;;;2.90;99.90;;;;;;6246793;22;20024;-85
2022/03/24 04:29:11;;;;;;;25.77;13.20;;;3.00;99.90;;;;;;6246823;23;20109;-85
2022/03/24 04:32:34;;;;;;;;;;;;;;;;;;;;;
2022/03/24 04:35:54;;;;;;;30.65;15.05;;;3.00;99.90;;;;;;6246403;22;20012;-85
2022/03/24 04:39:12;;;;;;;34.97;15.20;;;2.90;99.90;;;;;;6246781;22;20493;-85
2022/03/24 04:42:15;;;;;;;33.75;16.00;;;3.00;99.90;;;;;;6245694;22;20020;-85
2022/03/24 04:45:35;;;;;;;31.70;15.38;;;3.00;99.90;;;;;;6245472;23;20465;-85
2022/03/24 04:52:18;;;;;;;;;;;;;;;;;;;;;
2022/03/24 04:55:19;;;;;;;;;;;2.90;99.90;;;;;;6246529;22;20455;-85
2022/03/24 04:58:27;;;;;;;29.80;13.95;;;2.90;99.90;;;;;;6248442;22;20314;-85
2022/03/24 05:01:48;;;;;;;27.90;13.60;;;2.90;99.90;;;;;;6259039;22;20024;-85
2022/03/24 05:05:10;;;;;;;;;;;;;;;;;;;;;
2022/03/24 05:08:28;;;;;;;29.92;14.80;;;2.80;99.90;;;;;;6201641;23;20024;-85
2022/03/24 05:11:51;;;;;;;29.92;14.40;;;2.80;99.90;;;;;;6261215;22;20031;-84
2022/03/24 05:15:18;;;;;;;30.52;14.45;;;2.80;99.90;;;;;;6246795;22;20020;-85
2022/03/24 05:18:37;;;;;;;;;;;;;;;;;;;;;
2022/03/24 05:22:18;;;;;;;;;;;;;;;;;;;;;
2022/03/24 05:25:14;;;;;;;32.15;15.35;;;2.80;99.90;;;;;;6245678;22;20022;-84
2022/03/24 05:28:09;;;;;;;29.85;14.40;;;2.70;99.90;;;;;;6243394;23;20016;-84
2022/03/24 05:34:43;;;;;;;28.00;15.07;;;2.70;99.90;;;;;;6245692;23;20019;-85
2022/03/24 05:37:42;;;;;;;;;;;;;;;;;;;;;
2022/03/24 05:40:57;;;;;;;27.55;12.40;;;2.70;99.90;;;;;;6244889;22;20066;-84
2022/03/24 05:47:23;;;;;;;31.95;14.70;;;2.70;99.90;;;;;;6245958;23;20036;-85
2022/03/24 05:50:43;;;;;;;35.65;16.40;;;2.70;99.90;;;;;;6218744;23;20347;-84
2022/03/24 05:53:50;;;;;;;;;;;;;;;;;;;;;
2022/03/24 05:56:52;;;;;;;33.30;16.25;;;2.70;99.90;;;;;;6123641;23;20017;-85
2022/03/24 06:00:06;;;;;;;;;;;;;;;;;;;;;
2022/03/24 06:03:17;;;;;;;36.20;17.10;;;2.80;99.90;;;;;;6103394;23;20105;-85
2022/03/24 06:06:22;;;;;;;37.45;17.17;;;3.30;99.90;;;;;;6069362;23;20070;-85
2022/03/24 06:13:07;;;;;;;31.10;15.15;;;2.90;99.90;;;;;;6036323;23;20083;-85
2022/03/24 06:19:54;;;;;;;30.88;15.18;;;3.00;99.90;;;;;;5897067;24;20020;-83
2022/03/24 06:23:12;;;;;;;;;;;;;;;;;;;;;
2022/03/24 06:26:31;;;;;;;;;;;;;;;;;;;;;
2022/03/24 06:29:39;;;;;;;21.92;10.93;;;3.10;99.90;;;;;;5921669;24;20453;-85
2022/03/24 06:32:35;;;;;;;20.35;10.50;;;3.20;99.90;;;;;;5872191;24;20075;-85
2022/03/24 06:35:37;;;;;;;18.73;9.48;;;3.30;99.90;;;;;;5979543;23;20345;-86
2022/03/24 06:42:10;;;;;;;20.05;10.55;;;3.50;99.90;;;;;;5979647;24;20086;-84
2022/03/24 06:45:21;;;;;;;28.02;13.35;;;4.10;99.90;;;;;;5979493;24;20044;-86
2022/03/24 06:51:51;;;;;;;25.23;12.25;;;3.70;99.90;;;;;;5984525;23;20031;-86
2022/03/24 06:54:54;;;;;;;22.33;12.25;;;3.80;99.90;;;;;;6021512;23;20065;-86
2022/03/24 06:57:52;;;;;;;21.08;11.55;;;4.00;99.90;;;;;;6068875;23;20022;-86
2022/03/24 07:00:52;;;;;;;20.85;10.60;;;4.10;99.90;;;;;;6066591;23;20090;-85
2022/03/24 07:08:37;;;;;;;15.77;8.25;;;4.50;99.90;;;;;;6123026;23;20076;-86
2022/03/24 07:11:54;;;;;;;16.52;8.85;;;4.70;99.90;;;;;;6096809;23;20101;-86
2022/03/24 07:15:27;;;;;;;24.08;13.00;;;4.90;99.90;;;;;;6122944;23;20022;-85
2022/03/24 07:18:38;;;;;;;28.65;14.00;;;5.20;99.90;;;;;;6119937;23;20049;-86
2022/03/24 07:21:48;;;;;;;52.03;27.00;;;5.70;99.90;;;;;;6118156;23;20018;-85
2022/03/24 07:24:56;;;;;;;65.30;31.13;;;5.60;99.90;;;;;;6095952;23;20580;-86
2022/03/24 07:34:13;;;;;;;52.25;25.55;;;6.20;99.90;;;;;;6232337;23;20458;-87
2022/03/24 07:37:29;;;;;;;;;;;;;;;;;;;;;
2022/03/24 07:40:59;;;;;;;63.72;31.05;;;6.50;99.90;;;;;;6215153;23;20020;-85
2022/03/24 07:44:12;;;;;;;;;;;;;;;;;;;;;
2022/03/24 07:47:39;;;;;;;63.10;30.60;;;6.90;99.90;;;;;;6245999;23;20027;-85
2022/03/24 07:54:44;;;;;;;61.95;30.00;;;7.40;99.90;;;;;;6125295;23;20026;-86
2022/03/24 07:57:30;;;;;;;62.35;32.33;;;7.60;99.90;;;;;;6099735;23;20100;-85
2022/03/24 08:00:24;;;;;;;67.40;34.83;;;7.80;99.90;;;;;;6076369;23;20013;-88
2022/03/24 08:02:58;;;;;;;65.05;33.58;;;8.00;99.90;;;;;;6075015;23;20417;-87
2022/03/24 08:05:44;;;;;;;53.60;28.73;;;8.10;99.90;;;;;;6099730;23;20060;-85
2022/03/24 08:08:24;;;;;;;57.28;29.65;;;8.70;99.90;;;;;;6124384;23;20026;-86
2022/03/24 08:15:24;;;;;;;53.22;28.15;;;8.60;99.90;;;;;;6124422;23;20385;-84
2022/03/24 08:18:21;;;;;;;64.05;33.17;;;8.80;99.90;;;;;;6038217;23;20108;-84
2022/03/24 08:21:03;;;;;;;60.55;31.35;;;9.00;99.90;;;;;;6012322;23;20027;-84
2022/03/24 08:24:08;;;;;;;;;;;;;;;;;;;;;
2022/03/24 08:30:50;;;;;;;58.30;30.02;;;9.60;99.90;;;;;;5980714;23;20107;-85
2022/03/24 08:37:10;;;;;;;;;;;10.00;99.90;;;;;;4171096;27;25978100;-83
2022/03/24 08:39:47;;;;;;;55.28;29.08;;;10.30;99.90;;;;;;5067462;28;19931;-83
2022/03/24 08:42:23;;;;;;;51.05;27.98;;;10.40;99.90;;;;;;5064900;28;20040;-83
2022/03/24 08:45:29;;;;;;;41.75;23.05;;;10.90;99.90;;;;;;4977363;28;20502;-82
2022/03/24 08:48:02;;;;;;;43.67;22.67;;;10.70;99.90;;;;;;4984551;28;20510;-83
2022/03/24 08:50:34;;;;;;;54.90;29.30;;;10.90;99.90;;;;;;5007779;28;20454;-83
2022/03/24 08:53:07;;;;;;;52.95;27.00;;;11.10;99.90;;;;;;5015352;28;20459;-83
2022/03/24 08:55:35;;;;;;;51.00;28.38;;;11.30;99.90;;;;;;5019931;28;20093;-83
2022/03/24 08:58:44;;;;;;;50.30;26.63;;;11.50;99.90;;;;;;5005538;28;20056;-88
2022/03/24 09:01:23;;;;;;;46.95;25.25;;;11.60;99.90;;;;;;4975499;28;20479;-84
2022/03/24 09:04:01;;;;;;;41.50;23.13;;;11.80;99.90;;;;;;5013414;28;20532;-83
2022/03/24 09:06:34;;;;;;;47.35;25.10;;;11.90;99.90;;;;;;4983346;28;20108;-85
2022/03/24 09:09:07;;;;;;;47.30;25.50;;;12.10;99.90;;;;;;5014769;28;20050;-84
2022/03/24 09:11:54;;;;;;;;;;;;;;;;;;;;;
2022/03/24 09:15:11;;;;;;;52.08;27.58;;;12.80;99.90;;;;;;5004781;28;20576;-84
2022/03/24 09:18:18;;;;;;;53.63;27.95;;;12.60;99.90;;;;;;4995478;28;20050;-83
2022/03/24 09:21:22;;;;;;;50.08;26.75;;;12.80;99.90;;;;;;5017705;28;20048;-84
2022/03/24 09:24:24;;;;;;;57.50;30.63;;;13.10;99.90;;;;;;5062119;28;20148;-84
2022/03/24 09:27:24;;;;;;;54.80;29.60;;;13.30;99.90;;;;;;5021111;28;20054;-83
2022/03/24 09:30:31;;;;;;;55.65;29.73;;;13.40;99.90;;;;;;5016867;28;20060;-83
2022/03/24 09:33:15;;;;;;;50.25;26.85;;;13.70;99.90;;;;;;4995468;28;20133;-83
2022/03/24 09:35:43;;;;;;;52.38;28.52;;;13.70;99.90;;;;;;5009474;28;20053;-85
2022/03/24 09:38:13;;;;;;;55.08;30.10;;;13.80;99.90;;;;;;5009016;28;20490;-85
2022/03/24 09:40:51;;;;;;;51.80;29.80;;;13.90;99.90;;;;;;5025461;28;20030;-84
2022/03/24 09:43:36;;;;;;;52.38;27.83;;;14.10;99.90;;;;;;5025784;28;20112;-85
2022/03/24 09:46:17;;;;;;;47.70;26.65;;;14.20;99.90;;;;;;5018164;28;20040;-85
2022/03/24 09:48:59;;;;;;;47.10;25.70;;;14.40;99.90;;;;;;4995429;28;20061;-82
2022/03/24 09:51:43;;;;;;;54.83;30.05;;;14.30;99.90;;;;;;5011839;28;20042;-84
2022/03/24 09:58:00;;;;;;;;;;;;;;;;;;;;;
2022/03/24 10:00:47;;;;;;;45.90;26.63;;;14.90;99.90;;;;;;4986647;28;20065;-85
2022/03/24 10:03:23;;;;;;;45.05;25.50;;;15.00;99.90;;;;;;4987688;28;20429;-84
2022/03/24 10:06:01;;;;;;;44.10;23.23;;;15.00;99.90;;;;;;5053997;28;20145;-83
2022/03/24 10:08:41;;;;;;;39.65;22.63;;;15.10;99.90;;;;;;5043929;28;20115;-84
2022/03/24 10:11:10;;;;;;;42.58;22.45;;;15.20;99.90;;;;;;5052748;28;20052;-84
2022/03/24 10:13:53;;;;;;;40.75;23.65;;;15.40;99.90;;;;;;5052056;28;20080;-83
2022/03/24 10:16:55;;;;;;;45.15;24.45;;;15.50;99.90;;;;;;5051670;28;20056;-84
2022/03/24 10:19:59;;;;;;;48.95;25.58;;;15.70;99.90;;;;;;5047720;28;20049;-85
2022/03/24 10:22:29;;;;;;;45.85;24.83;;;15.80;99.90;;;;;;5035202;28;20164;-84
2022/03/24 10:25:01;;;;;;;47.13;24.23;;;15.80;99.90;;;;;;5051235;28;20508;-84
2022/03/24 10:27:43;;;;;;;44.13;23.48;;;15.90;99.90;;;;;;5053477;28;20028;-83
2022/03/24 10:30:46;;;;;;;41.35;23.63;;;15.90;99.90;;;;;;5053412;28;20136;-83
2022/03/24 10:34:10;;;;;;;43.83;23.15;;;16.10;99.90;;;;;;5051718;28;20081;-84
2022/03/24 10:50:51;;;;;;;;;;;;;;;;;;;;;
2022/03/24 11:10:05;;;;;;;41.70;22.92;;;17.10;98.60;;;;;;5201334;23;20043;-85
2022/03/24 11:14:05;;;;;;;;;;;;;;;;;;;;;
2022/03/24 11:20:40;;;;;;;42.90;23.90;;;17.30;98.30;;;;;;5003619;28;20124;-85
2022/03/24 11:32:41;;;;;;;;;;;;;;;;;;;;;
2022/03/24 11:35:41;;;;;;;41.33;23.52;;;17.20;96.30;;;;;;5032674;22;20044;-86
2022/03/24 11:39:26;;;;;;;;;;;;;;;;;;;;;
2022/03/24 11:42:16;;;;;;;40.45;23.08;;;17.30;92.10;;;;;;4986479;28;20049;-87
2022/03/24 11:45:37;;;;;;;40.40;22.45;;;17.40;87.00;;;;;;4988755;28;20056;-87
2022/03/24 11:49:07;;;;;;;34.70;20.23;;;17.30;87.40;;;;;;4981399;28;20047;-87
2022/03/24 11:52:17;;;;;;;36.58;21.05;;;17.20;85.10;;;;;;4991879;28;20554;-86
2022/03/24 11:55:10;;;;;;;36.53;20.77;;;17.30;91.30;;;;;;4984990;28;20166;-85
2022/03/24 11:58:27;;;;;;;39.67;22.50;;;17.40;88.90;;;;;;4986012;28;20506;-86
2022/03/24 12:13:12;;;;;;;34.80;20.05;;;17.40;75.80;;;;;;4951179;28;20511;-87
2022/03/24 12:24:32;;;;;;;;;;;;;;;;;;;;;
2022/03/24 12:42:21;;;;;;;;;;;;;;;;;;;;;
2022/03/24 12:45:25;;;;;;;37.97;21.63;;;17.70;70.50;;;;;;4869911;29;20051;-87
2022/03/24 12:55:14;;;;;;;;;;;;;;;;;;;;;
2022/03/24 12:59:15;;;;;;;36.08;21.33;;;17.90;65.70;;;;;;4934380;29;19927;-88
2022/03/24 13:02:46;;;;;;;;;;;;;;;;;;;;;
2022/03/24 13:17:30;;;;;;;39.30;22.83;;;18.20;63.90;;;;;;4699175;30;20060;-88
2022/03/24 13:21:06;;;;;;;;;;;;;;;;;;;;;
2022/03/24 13:24:42;;;;;;;38.45;23.08;;;18.20;65.20;;;;;;5186548;27;20045;-89
2022/03/24 13:32:08;;;;;;;;;;;;;;;;;;;;;
2022/03/24 13:35:39;;;;;;;40.83;24.10;;;18.30;65.10;;;;;;5006369;28;20668;-91
2022/03/24 13:38:36;;;;;;;;;;;;;;;;;;;;;
2022/03/24 13:49:12;;;;;;;41.63;23.58;;;17.80;64.60;;;;;;4994901;28;20407;-88
2022/03/24 13:52:08;;;;;;;39.45;23.02;;;17.50;64.20;;;;;;4934740;29;20055;-87
2022/03/24 13:55:21;;;;;;;;;;;;;;;;;;;;;
2022/03/24 13:58:08;;;;;;;36.22;21.25;;;17.60;61.90;;;;;;4909355;29;20543;-88
2022/03/24 14:01:05;;;;;;;39.28;22.05;;;17.50;62.10;;;;;;4929387;29;20060;-87
2022/03/24 14:04:01;;;;;;;38.72;22.50;;;17.50;62.80;;;;;;4914001;29;20532;-87
2022/03/24 14:06:30;;;;;;;40.92;23.73;;;17.50;62.60;;;;;;4919629;28;20062;-87
2022/03/24 14:16:13;;;;;;;45.92;26.17;;;17.20;67.50;;;;;;5070308;28;20035;-88
2022/03/24 14:19:17;;;;;;;42.88;24.45;;;17.30;67.00;;;;;;4950524;28;20157;-87
2022/03/24 14:22:19;;;;;;;;;;;;;;;;;;;;;
2022/03/24 14:25:17;;;;;;;42.55;23.90;;;17.00;67.70;;;;;;4951726;28;20051;-87
2022/03/24 14:30:37;;;;;;;;;;;17.20;66.50;;;;;;5148576;22;20053;-89
2022/03/24 14:36:53;;;;;;;44.67;25.77;;;16.80;70.50;;;;;;4936415;29;20082;-87
2022/03/24 14:45:33;;;;;;;45.13;24.00;;;16.60;79.40;;;;;;5040522;28;20103;-88
2022/03/24 14:48:59;;;;;;;;;;;;;;;;;;;;;
2022/03/24 14:51:49;;;;;;;;;;;16.40;75.80;;;;;;4881429;29;20552;-86
2022/03/24 14:58:52;;;;;;;45.33;24.10;;;16.30;72.30;;;;;;4883821;29;20129;-88
2022/03/24 15:02:10;;;;;;;45.40;24.92;;;16.20;81.50;;;;;;4871581;29;20114;-88
2022/03/24 15:05:14;;;;;;;47.08;24.15;;;16.00;82.60;;;;;;4873679;29;20437;-81
2022/03/24 15:08:38;;;;;;;42.42;21.38;;;16.10;82.30;;;;;;4816361;29;20053;-83
2022/03/24 15:11:43;;;;;;;40.53;20.77;;;15.90;78.40;;;;;;4819242;29;20054;-81
2022/03/24 15:18:01;;;;;;;42.28;22.42;;;15.40;84.30;;;;;;4822488;29;20047;-82
2022/03/24 15:20:55;;;;;;;;;;;15.20;90.60;;;;;;4811461;29;20506;-82
2022/03/24 15:23:55;;;;;;;44.00;22.80;;;15.20;90.70;;;;;;4843250;29;20391;-81
2022/03/24 15:30:56;;;;;;;44.33;20.67;;;14.90;92.80;;;;;;4964962;28;20074;-85
2022/03/24 15:34:05;;;;;;;43.70;23.55;;;14.70;95.90;;;;;;4971579;28;20055;-85
2022/03/24 15:37:10;;;;;;;42.08;23.75;;;14.50;96.80;;;;;;4947162;29;20053;-84
2022/03/24 15:40:24;;;;;;;44.80;22.95;;;14.40;98.10;;;;;;4967599;28;20129;-82
2022/03/24 15:43:08;;;;;;;42.35;23.42;;;14.30;99.90;;;;;;5018158;28;20196;-85
2022/03/24 15:45:36;;;;;;;49.22;25.25;;;14.20;99.90;;;;;;5033124;28;20379;-84
2022/03/24 15:48:08;;;;;;;46.83;24.35;;;14.20;99.90;;;;;;5034216;28;20236;-82
2022/03/24 15:50:39;;;;;;;48.60;26.02;;;14.00;99.90;;;;;;5043652;28;20064;-84
2022/03/24 15:53:36;;;;;;;54.30;29.27;;;14.00;99.90;;;;;;5038916;28;20099;-83
2022/03/24 15:56:14;;;;;;;49.25;26.40;;;14.00;99.90;;;;;;5040776;28;20041;-84
2022/03/24 15:58:51;;;;;;;47.17;25.67;;;13.70;99.90;;;;;;5017962;28;20449;-85
2022/03/24 16:01:31;;;;;;;51.20;26.55;;;13.70;99.90;;;;;;5025640;28;20549;-85
2022/03/24 16:04:15;;;;;;;48.58;27.45;;;13.50;99.90;;;;;;5034011;28;20725;-84
2022/03/24 16:06:55;;;;;;;52.80;26.80;;;13.20;99.90;;;;;;5021993;28;20559;-85
2022/03/24 16:09:23;;;;;;;50.75;26.55;;;13.40;99.90;;;;;;5036738;28;20041;-84
2022/03/24 16:11:59;;;;;;;50.05;27.02;;;13.40;99.90;;;;;;5016130;28;20089;-84
2022/03/24 16:14:35;;;;;;;46.20;24.85;;;13.40;99.90;;;;;;5029595;28;20045;-84
2022/03/24 16:17:07;;;;;;;44.65;26.30;;;13.10;99.90;;;;;;5041901;28;20061;-84
2022/03/24 16:19:37;;;;;;;46.53;26.10;;;13.10;99.90;;;;;;5021302;28;20045;-84
2022/03/24 16:22:14;;;;;;;50.38;28.45;;;12.90;99.90;;;;;;5037249;28;20124;-85
2022/03/24 16:29:06;;;;;;;49.72;27.17;;;12.70;99.90;;;;;;5035080;28;20071;-84
2022/03/24 16:35:26;;;;;;;48.20;27.95;;;12.50;99.90;;;;;;5032910;28;20504;-84
2022/03/24 16:38:01;;;;;;;45.33;27.05;;;12.40;99.90;;;;;;5042641;28;20091;-84
2022/03/24 16:40:37;;;;;;;50.28;28.80;;;12.30;99.90;;;;;;5045779;28;20045;-85
2022/03/24 16:43:27;;;;;;;;;;;;;;;;;;;;;
2022/03/24 16:46:05;;;;;;;44.33;26.00;;;12.10;99.90;;;;;;5015975;28;20077;-85
2022/03/24 16:48:37;;;;;;;50.20;28.73;;;12.50;99.90;;;;;;5042711;28;20075;-85
2022/03/24 16:51:16;;;;;;;46.63;25.35;;;12.00;99.90;;;;;;5033941;28;20049;-86
2022/03/24 16:53:52;;;;;;;48.17;27.50;;;12.10;99.90;;;;;;5042872;28;20033;-86
2022/03/24 16:57:04;;;;;;;;;;;;;;;;;;;;;
2022/03/24 16:59:39;;;;;;;52.33;29.38;;;11.60;99.90;;;;;;5016469;28;20111;-84
2022/03/24 17:02:23;;;;;;;54.85;29.27;;;11.40;99.90;;;;;;5022284;28;20049;-83
2022/03/24 17:08:23;;;;;;;48.58;26.30;;;11.30;99.90;;;;;;5034623;28;20048;-84
2022/03/24 17:10:54;;;;;;;55.33;30.70;;;11.20;99.90;;;;;;5006152;28;20548;-84
2022/03/24 17:13:34;;;;;;;49.10;26.77;;;10.90;99.90;;;;;;5016860;28;20047;-84
2022/03/24 17:16:15;;;;;;;44.83;25.85;;;11.00;99.90;;;;;;5017220;28;20382;-84
2022/03/24 17:19:01;;;;;;;;;;;10.70;99.90;;;;;;5043261;28;20045;-84
2022/03/24 17:21:42;;;;;;;46.50;25.60;;;10.80;99.90;;;;;;5031219;28;19972;-85
2022/03/24 17:24:23;;;;;;;47.75;26.95;;;10.50;99.90;;;;;;5015759;28;20092;-84
2022/03/24 17:30:45;;;;;;;39.63;22.67;;;10.30;99.90;;;;;;5033214;28;20066;-85
2022/03/24 17:33:17;;;;;;;44.25;24.65;;;10.10;99.90;;;;;;5040104;28;20045;-85
2022/03/24 17:36:03;;;;;;;42.67;21.65;;;10.00;99.90;;;;;;5029645;28;20040;-86
2022/03/24 17:38:38;;;;;;;42.17;23.23;;;10.60;99.90;;;;;;5011515;28;20584;-85
2022/03/24 17:41:29;;;;;;;46.05;24.58;;;9.60;99.90;;;;;;5024222;28;20081;-86
2022/03/24 17:44:04;;;;;;;49.90;27.10;;;9.70;99.90;;;;;;5018954;28;20128;-85
2022/03/24 17:46:37;;;;;;;43.10;23.27;;;9.70;99.90;;;;;;5004225;28;20046;-85
2022/03/24 17:49:10;;;;;;;48.65;25.17;;;9.50;99.90;;;;;;5019286;28;20041;-85
2022/03/24 17:52:26;;;;;;;39.28;22.10;;;9.40;99.90;;;;;;5013461;28;20184;-85
2022/03/24 17:55:11;;;;;;;52.58;27.85;;;9.30;99.90;;;;;;5006528;28;20454;-84
2022/03/24 17:58:13;;;;;;;50.03;25.45;;;9.30;99.90;;;;;;5019629;28;20183;-84
2022/03/24 18:01:17;;;;;;;;;;;;;;;;;;;;;
2022/03/24 18:04:00;;;;;;;46.88;26.38;;;9.20;99.90;;;;;;5014343;28;20048;-83
2022/03/24 18:07:00;;;;;;;48.92;26.08;;;8.90;99.90;;;;;;5021103;28;20053;-84
2022/03/24 18:09:57;;;;;;;;;;;;;;;;;;;;;
2022/03/24 18:13:04;;;;;;;46.33;23.75;;;8.70;99.90;;;;;;5022276;28;20054;-83
2022/03/24 18:19:56;;;;;;;43.67;23.30;;;8.40;99.90;;;;;;5027110;28;20055;-85
2022/03/24 18:23:10;;;;;;;45.35;23.92;;;8.30;99.90;;;;;;5024633;28;20510;-83
2022/03/24 18:26:20;;;;;;;47.80;25.88;;;8.10;99.90;;;;;;4980641;28;20042;-83
2022/03/24 18:29:38;;;;;;;47.13;24.75;;;8.10;99.90;;;;;;5023434;28;20037;-83
2022/03/24 18:32:52;;;;;;;46.70;25.50;;;8.00;99.90;;;;;;5018141;28;20049;-83
2022/03/24 18:43:17;;;;;;;48.40;25.98;;;7.70;99.90;;;;;;5022606;28;20049;-86
2022/03/24 18:46:45;;;;;;;;;;;;;;;;;;;;;
2022/03/24 18:50:02;;;;;;;52.38;27.17;;;7.60;99.90;;;;;;5040067;28;20156;-85
2022/03/24 18:53:26;;;;;;;;;;;;;;;;;;;;;
2022/03/24 18:56:38;;;;;;;52.28;26.35;;;7.50;99.90;;;;;;5006687;28;20060;-86
2022/03/24 18:59:44;;;;;;;45.20;24.73;;;7.40;99.90;;;;;;5024604;28;20038;-86
2022/03/24 19:14:08;;;;;;;;;;;;;;;;;;;;;
2022/03/24 19:17:40;;;;;;;;;;;;;;;;;;;;;
2022/03/24 19:20:52;;;;;;;58.20;28.30;;;7.10;99.90;;;;;;5022952;28;20120;-86
2022/03/24 19:24:20;;;;;;;54.35;26.52;;;7.00;99.90;;;;;;5039681;28;20052;-87
2022/03/24 19:27:42;;;;;;;;;;;;;;;;;;;;;
2022/03/24 19:31:10;;;;;;;;;;;;;;;;;;;;;
2022/03/24 19:41:35;;;;;;;53.90;28.70;;;6.60;99.90;;;;;;5030819;28;20178;-86
2022/03/24 19:44:14;;;;;;;63.65;30.85;;;6.60;99.90;;;;;;5034882;28;20064;-87
2022/03/24 19:46:46;;;;;;;63.25;30.30;;;6.60;99.90;;;;;;5020153;28;20077;-83
2022/03/24 19:49:21;;;;;;;51.92;27.13;;;6.60;99.90;;;;;;5015961;28;20080;-85
2022/03/24 19:51:57;;;;;;;52.20;27.20;;;6.50;99.90;;;;;;5041425;28;20079;-87
2022/03/24 19:54:36;;;;;;;51.38;26.90;;;6.50;99.90;;;;;;5016135;28;20113;-88
2022/03/24 19:57:05;;;;;;;50.92;25.92;;;6.40;99.90;;;;;;5042554;28;20438;-86
2022/03/24 20:00:06;;;;;;;48.90;24.10;;;6.40;99.90;;;;;;5045131;28;20462;-84
2022/03/24 20:02:40;;;;;;;55.10;27.40;;;6.30;99.90;;;;;;4974145;28;20062;-85
2022/03/24 20:05:12;;;;;;;61.40;30.92;;;6.40;99.90;;;;;;4947602;28;20124;-82
2022/03/24 20:07:40;;;;;;;60.65;30.23;;;6.20;99.90;;;;;;4963913;28;20043;-85
2022/03/24 20:10:20;;;;;;;63.17;30.75;;;6.30;99.90;;;;;;4982594;28;20080;-84
2022/03/24 20:12:50;;;;;;;58.03;30.25;;;6.30;99.90;;;;;;4960264;28;20047;-84
2022/03/24 20:15:18;;;;;;;58.17;30.17;;;6.20;99.90;;;;;;4964270;28;20049;-83
2022/03/24 20:17:51;;;;;;;61.10;29.70;;;6.20;99.90;;;;;;4962478;28;20173;-84
2022/03/24 20:20:20;;;;;;;59.25;28.75;;;6.10;99.90;;;;;;4981851;28;20066;-83
2022/03/24 20:22:55;;;;;;;52.25;26.60;;;6.10;99.90;;;;;;4967013;28;20056;-84
2022/03/24 20:25:28;;;;;;;54.95;26.95;;;6.70;99.90;;;;;;4978232;28;20546;-84
2022/03/24 20:28:00;;;;;;;59.90;29.33;;;6.00;99.90;;;;;;4963666;28;20120;-85
2022/03/24 20:30:28;;;;;;;57.10;28.52;;;6.00;99.90;;;;;;4955951;28;20054;-84
2022/03/24 20:33:04;;;;;;;51.70;25.40;;;6.00;99.90;;;;;;4963807;28;20144;-85
2022/03/24 20:35:34;;;;;;;50.97;26.35;;;5.90;99.90;;;;;;4956423;28;20039;-85
2022/03/24 20:38:04;;;;;;;52.90;26.35;;;5.90;99.90;;;;;;4966703;28;20424;-85
2022/03/24 20:40:38;;;;;;;55.00;25.00;;;5.90;99.90;;;;;;5021397;28;20053;-84
2022/03/24 20:43:08;;;;;;;50.97;25.25;;;5.80;99.90;;;;;;5034405;28;20550;-84
2022/03/24 20:45:40;;;;;;;49.63;24.67;;;5.80;99.90;;;;;;5025703;28;20184;-85
2022/03/24 20:48:08;;;;;;;60.20;28.25;;;5.70;99.90;;;;;;5024846;28;20056;-84
2022/03/24 20:50:37;;;;;;;63.10;30.08;;;5.80;99.90;;;;;;5025904;28;20045;-84
2022/03/24 20:53:10;;;;;;;54.67;28.73;;;5.80;99.90;;;;;;5017458;28;20037;-84
2022/03/24 20:55:40;;;;;;;51.55;26.40;;;5.80;99.90;;;;;;5015189;28;20060;-84
2022/03/24 20:58:08;;;;;;;60.90;29.48;;;5.70;99.90;;;;;;5021598;28;20046;-83
2022/03/24 21:00:35;;;;;;;55.67;28.80;;;6.20;99.90;;;;;;5022800;28;20145;-82
2022/03/24 21:03:04;;;;;;;55.50;27.00;;;5.70;99.90;;;;;;5040486;28;20052;-82
2022/03/24 21:05:32;;;;;;;60.40;29.67;;;5.70;99.90;;;;;;5025196;28;20047;-82
2022/03/24 21:08:03;;;;;;;50.97;24.63;;;5.70;99.90;;;;;;5018311;28;20045;-84
2022/03/24 21:10:30;;;;;;;56.22;28.70;;;5.70;99.90;;;;;;5021235;28;20040;-84
2022/03/24 21:13:12;;;;;;;56.25;28.23;;;5.60;99.90;;;;;;5031879;28;20128;-85
2022/03/24 21:15:49;;;;;;;59.03;29.83;;;5.70;99.90;;;;;;5031839;28;20041;-83
2022/03/24 21:18:31;;;;;;;52.65;27.23;;;5.70;99.90;;;;;;5021999;28;20049;-83
2022/03/24 21:21:05;;;;;;;59.75;28.67;;;5.60;99.90;;;;;;5025170;28;20040;-84